CST,Max TemperatureF,Mean TemperatureF,Min TemperatureF,Max Dew PointF,MeanDew PointF,Min DewpointF,Max Humidity, Mean Humidity, Min Humidity, Max Sea Level PressureIn, Mean Sea Level PressureIn, Min Sea Level PressureIn, Max VisibilityMiles, Mean VisibilityMiles, Min VisibilityMiles, Max Wind SpeedMPH, Mean Wind SpeedMPH, Max Gust SpeedMPH,PrecipitationIn, CloudCover, Events, WindDirDegrees
2012-2-1,57,54,51,55,54,45,100,96,76,30.20,30.14,30.06,10,6,1,9,4,,0.24,8,Rain,161
2012-2-2,62,52,42,54,42,32,100,74,32,30.30,30.22,30.12,10,7,0,9,3,17,0.00,3,Fog,17
2012-2-3,60,46,33,43,36,32,100,64,38,30.33,30.29,30.24,10,10,10,17,4,26,0.00,1,Rain,141
2012-2-4,60,55,50,57,51,45,100,89,72,30.21,30.12,30.03,10,8,2,13,8,18,0.38,8,Rain,143
2012-2-5,59,52,44,55,50,43,100,88,59,30.18,30.12,30.05,10,9,0,14,6,22,0.01,7,Fog-Rain,321
2012-2-6,51,44,37,43,40,37,100,85,58,30.26,30.20,30.18,10,8,0,8,3,,0.00,5,Fog,352
2012-2-7,55,44,32,37,33,30,100,75,38,30.26,30.21,30.16,10,8,1,14,2,,0.00,0,,5
2012-2-8,48,44,39,39,36,34,87,75,62,30.32,30.26,30.19,10,10,4,16,5,21,0.00,7,,342
2012-2-9,44,38,33,32,32,30,93,79,61,30.33,30.29,30.22,10,9,7,9,6,,0.00,6,,342
2012-2-10,44,37,30,36,32,30,100,88,61,30.19,30.12,30.03,10,7,4,12,1,,0.00,3,Rain,300
2012-2-11,37,32,26,36,20,9,100,66,40,30.42,30.24,30.00,10,9,3,26,13,34,0.00,5,Rain-Snow,336
2012-2-12,35,26,17,23,13,9,80,59,38,30.50,30.44,30.37,10,10,10,10,6,10,0.00,0,,335
2012-2-13,44,32,21,32,22,18,100,70,39,30.33,30.22,30.07,10,10,10,12,2,,0.00,4,Rain,160
2012-2-14,46,42,37,45,40,34,100,97,87,30.11,30.00,29.93,10,6,2,12,6,16,0.09,8,Rain,161
2012-2-15,60,46,33,48,42,34,100,82,52,30.22,30.14,30.07,10,6,0,10,2,17,0.00,4,Fog,134
2012-2-16,60,56,50,54,50,45,100,85,59,30.14,30.10,30.04,10,9,2,15,7,18,0.14,5,Rain,286
2012-2-17,60,50,39,43,39,32,100,71,34,30.19,30.14,30.09,10,10,5,12,6,,0.00,1,,1
2012-2-18,57,46,35,46,40,34,100,77,48,30.09,30.01,29.88,10,10,7,6,0,,0.00,1,Rain,352
2012-2-19,46,39,32,43,38,32,100,93,81,30.12,29.91,29.77,10,8,2,20,8,25,0.25,6,Rain,359
2012-2-20,55,40,26,34,30,27,100,75,33,30.25,30.19,30.12,10,8,2,9,2,9,0.00,0,,132
2012-2-21,64,55,46,46,37,27,82,55,26,30.17,30.06,29.98,10,10,10,22,13,34,0.00,3,Rain-Thunderstorm,205
2012-2-22,64,50,35,55,46,30,100,79,57,29.99,29.82,29.60,10,9,2,21,7,30,0.09,4,Rain-Thunderstorm,203
2012-2-23,77,65,53,59,56,52,100,75,41,29.64,29.56,29.45,10,9,4,28,12,34,0.00,1,,192
2012-2-24,68,54,37,61,38,23,83,56,30,30.16,29.85,29.56,10,10,10,22,14,37,0.00,2,Thunderstorm,290
2012-2-25,51,40,28,32,26,16,100,64,24,30.33,30.28,30.20,10,10,10,18,4,26,0.00,0,,291
2012-2-26,60,44,28,32,27,21,100,50,23,30.40,30.31,30.24,10,10,10,14,3,18,0.00,1,,159
2012-2-27,64,55,46,45,40,30,87,58,42,30.41,30.35,30.31,10,10,4,6,1,,0.00,3,,26
2012-2-28,69,53,37,55,43,37,100,72,38,30.35,30.28,30.17,10,10,7,13,3,18,0.00,4,,152
2012-2-29,71,66,60,63,62,61,100,90,73,30.11,29.98,29.82,10,9,4,24,15,38,0.00,7,Rain-Thunderstorm,201